sensor_id;sensor_type;location;lat;lon;timestamp;P1;durP1;ratioP1;P2;durP2;ratioP2
27539;SDS011;15906;52.046;4.724;2023-08-12T00:01:33;12.70;;;5.93;;
27539;SDS011;15906;52.046;4.724;2023-08-12T00:03:58;11.70;;;6.30;;
27539;SDS011;15906;52.046;4.724;2023-08-12T00:06:24;13.48;;;6.60;;
27539;SDS011;15906;52.046;4.724;2023-08-12T00:08:49;9.80;;;6.55;;
27539;SDS011;15906;52.046;4.724;2023-08-12T00:11:15;16.48;;;6.03;;
27539;SDS011;15906;52.046;4.724;2023-08-12T00:13:40;11.25;;;6.35;;
27539;SDS011;15906;52.046;4.724;2023-08-12T00:16:06;12.98;;;6.38;;
27539;SDS011;15906;52.046;4.724;2023-08-12T00:18:32;12.30;;;6.97;;
27539;SDS011;15906;52.046;4.724;2023-08-12T00:21:05;12.63;;;5.20;;
27539;SDS011;15906;52.046;4.724;2023-08-12T00:23:37;10.18;;;5.22;;
27539;SDS011;15906;52.046;4.724;2023-08-12T00:26:08;17.63;;;7.13;;
27539;SDS011;15906;52.046;4.724;2023-08-12T00:28:34;12.77;;;6.68;;
27539;SDS011;15906;52.046;4.724;2023-08-12T00:30:59;14.55;;;5.65;;
27539;SDS011;15906;52.046;4.724;2023-08-12T00:33:25;9.82;;;5.38;;
27539;SDS011;15906;52.046;4.724;2023-08-12T00:35:51;11.00;;;6.90;;
27539;SDS011;15906;52.046;4.724;2023-08-12T00:38:16;16.77;;;6.65;;
27539;SDS011;15906;52.046;4.724;2023-08-12T00:40:42;15.23;;;6.90;;
27539;SDS011;15906;52.046;4.724;2023-08-12T00:43:08;13.43;;;6.63;;
27539;SDS011;15906;52.046;4.724;2023-08-12T00:45:34;12.52;;;6.15;;
27539;SDS011;15906;52.046;4.724;2023-08-12T00:48:00;13.75;;;7.30;;
27539;SDS011;15906;52.046;4.724;2023-08-12T00:50:30;14.52;;;7.80;;
27539;SDS011;15906;52.046;4.724;2023-08-12T00:52:57;13.40;;;8.70;;
27539;SDS011;15906;52.046;4.724;2023-08-12T00:55:23;16.77;;;9.30;;
27539;SDS011;15906;52.046;4.724;2023-08-12T00:57:49;17.17;;;9.35;;
27539;SDS011;15906;52.046;4.724;2023-08-12T01:00:15;15.20;;;9.57;;
27539;SDS011;15906;52.046;4.724;2023-08-12T01:02:42;18.77;;;10.07;;
27539;SDS011;15906;52.046;4.724;2023-08-12T01:05:13;18.58;;;9.95;;
27539;SDS011;15906;52.046;4.724;2023-08-12T01:07:39;17.33;;;10.20;;
27539;SDS011;15906;52.046;4.724;2023-08-12T01:10:05;20.35;;;11.23;;
27539;SDS011;15906;52.046;4.724;2023-08-12T01:12:33;17.13;;;10.52;;
27539;SDS011;15906;52.046;4.724;2023-08-12T01:15:06;22.33;;;11.50;;
27539;SDS011;15906;52.046;4.724;2023-08-12T01:17:34;19.77;;;11.30;;
27539;SDS011;15906;52.046;4.724;2023-08-12T01:20:03;21.85;;;11.80;;
27539;SDS011;15906;52.046;4.724;2023-08-12T01:22:37;21.80;;;11.55;;
27539;SDS011;15906;52.046;4.724;2023-08-12T01:25:06;21.02;;;12.98;;
27539;SDS011;15906;52.046;4.724;2023-08-12T01:27:33;22.45;;;12.13;;
27539;SDS011;15906;52.046;4.724;2023-08-12T01:30:00;18.75;;;11.75;;
27539;SDS011;15906;52.046;4.724;2023-08-12T01:35:02;20.60;;;12.43;;
27539;SDS011;15906;52.046;4.724;2023-08-12T01:37:34;19.90;;;12.07;;
27539;SDS011;15906;52.046;4.724;2023-08-12T01:40:02;23.23;;;12.90;;
27539;SDS011;15906;52.046;4.724;2023-08-12T01:42:29;23.80;;;12.32;;
27539;SDS011;15906;52.046;4.724;2023-08-12T01:44:57;22.02;;;12.75;;
27539;SDS011;15906;52.046;4.724;2023-08-12T01:47:22;25.73;;;12.63;;
27539;SDS011;15906;52.046;4.724;2023-08-12T01:49:48;25.45;;;12.25;;
27539;SDS011;15906;52.046;4.724;2023-08-12T01:52:14;26.20;;;13.82;;
27539;SDS011;15906;52.046;4.724;2023-08-12T01:54:40;26.75;;;13.65;;
27539;SDS011;15906;52.046;4.724;2023-08-12T01:57:05;22.73;;;12.75;;
27539;SDS011;15906;52.046;4.724;2023-08-12T01:59:33;24.63;;;13.77;;
27539;SDS011;15906;52.046;4.724;2023-08-12T02:01:59;24.77;;;13.45;;
27539;SDS011;15906;52.046;4.724;2023-08-12T02:04:25;25.83;;;14.63;;
27539;SDS011;15906;52.046;4.724;2023-08-12T02:06:51;23.00;;;14.05;;
27539;SDS011;15906;52.046;4.724;2023-08-12T02:09:17;29.20;;;13.05;;
27539;SDS011;15906;52.046;4.724;2023-08-12T02:11:42;25.92;;;14.10;;
27539;SDS011;15906;52.046;4.724;2023-08-12T02:14:08;22.70;;;13.45;;
27539;SDS011;15906;52.046;4.724;2023-08-12T02:16:34;29.58;;;12.63;;
27539;SDS011;15906;52.046;4.724;2023-08-12T02:18:59;20.15;;;12.57;;
27539;SDS011;15906;52.046;4.724;2023-08-12T02:21:25;21.70;;;13.07;;
27539;SDS011;15906;52.046;4.724;2023-08-12T02:23:50;22.55;;;13.95;;
27539;SDS011;15906;52.046;4.724;2023-08-12T02:26:16;22.60;;;13.20;;
27539;SDS011;15906;52.046;4.724;2023-08-12T02:28:41;22.63;;;12.35;;
27539;SDS011;15906;52.046;4.724;2023-08-12T02:31:07;22.38;;;12.90;;
27539;SDS011;15906;52.046;4.724;2023-08-12T02:33:32;22.40;;;13.70;;
27539;SDS011;15906;52.046;4.724;2023-08-12T02:35:58;21.58;;;13.35;;
27539;SDS011;15906;52.046;4.724;2023-08-12T02:38:24;22.05;;;13.05;;
27539;SDS011;15906;52.046;4.724;2023-08-12T02:40:49;20.30;;;13.80;;
27539;SDS011;15906;52.046;4.724;2023-08-12T02:43:16;21.70;;;12.93;;
27539;SDS011;15906;52.046;4.724;2023-08-12T02:45:41;22.55;;;13.18;;
27539;SDS011;15906;52.046;4.724;2023-08-12T02:48:09;21.48;;;13.68;;
27539;SDS011;15906;52.046;4.724;2023-08-12T02:50:35;24.73;;;13.45;;
27539;SDS011;15906;52.046;4.724;2023-08-12T02:53:01;27.52;;;14.27;;
27539;SDS011;15906;52.046;4.724;2023-08-12T02:55:27;22.33;;;14.38;;
27539;SDS011;15906;52.046;4.724;2023-08-12T02:57:53;20.85;;;14.07;;
27539;SDS011;15906;52.046;4.724;2023-08-12T03:00:18;24.02;;;15.18;;
27539;SDS011;15906;52.046;4.724;2023-08-12T03:02:44;26.92;;;13.82;;
27539;SDS011;15906;52.046;4.724;2023-08-12T03:05:10;25.70;;;15.90;;
27539;SDS011;15906;52.046;4.724;2023-08-12T03:07:35;24.90;;;15.45;;
27539;SDS011;15906;52.046;4.724;2023-08-12T03:10:01;23.33;;;15.57;;
27539;SDS011;15906;52.046;4.724;2023-08-12T03:12:26;22.85;;;15.25;;
27539;SDS011;15906;52.046;4.724;2023-08-12T03:14:52;25.20;;;16.13;;
27539;SDS011;15906;52.046;4.724;2023-08-12T03:17:17;30.98;;;17.63;;
27539;SDS011;15906;52.046;4.724;2023-08-12T03:19:43;26.25;;;16.55;;
27539;SDS011;15906;52.046;4.724;2023-08-12T03:22:09;24.05;;;15.90;;
27539;SDS011;15906;52.046;4.724;2023-08-12T03:24:34;24.40;;;15.65;;
27539;SDS011;15906;52.046;4.724;2023-08-12T03:27:00;24.52;;;16.35;;
27539;SDS011;15906;52.046;4.724;2023-08-12T03:29:25;30.23;;;17.67;;
27539;SDS011;15906;52.046;4.724;2023-08-12T03:31:51;30.20;;;17.55;;
27539;SDS011;15906;52.046;4.724;2023-08-12T03:34:16;29.88;;;16.98;;
27539;SDS011;15906;52.046;4.724;2023-08-12T03:36:42;27.55;;;17.05;;
27539;SDS011;15906;52.046;4.724;2023-08-12T03:39:08;28.30;;;16.92;;
27539;SDS011;15906;52.046;4.724;2023-08-12T03:41:33;28.77;;;16.30;;
27539;SDS011;15906;52.046;4.724;2023-08-12T03:43:59;29.25;;;15.60;;
27539;SDS011;15906;52.046;4.724;2023-08-12T03:46:24;31.38;;;15.13;;
27539;SDS011;15906;52.046;4.724;2023-08-12T03:48:50;26.80;;;14.98;;
27539;SDS011;15906;52.046;4.724;2023-08-12T03:51:15;27.27;;;14.43;;
27539;SDS011;15906;52.046;4.724;2023-08-12T03:53:41;26.25;;;15.95;;
27539;SDS011;15906;52.046;4.724;2023-08-12T03:56:07;22.58;;;15.30;;
27539;SDS011;15906;52.046;4.724;2023-08-12T03:58:32;23.10;;;14.55;;
27539;SDS011;15906;52.046;4.724;2023-08-12T04:00:58;23.50;;;15.63;;
27539;SDS011;15906;52.046;4.724;2023-08-12T04:03:24;22.35;;;15.38;;
27539;SDS011;15906;52.046;4.724;2023-08-12T04:05:50;26.40;;;16.48;;
27539;SDS011;15906;52.046;4.724;2023-08-12T04:08:17;25.60;;;16.00;;
27539;SDS011;15906;52.046;4.724;2023-08-12T04:10:45;24.80;;;15.57;;
27539;SDS011;15906;52.046;4.724;2023-08-12T04:13:11;25.38;;;15.60;;
27539;SDS011;15906;52.046;4.724;2023-08-12T04:15:36;23.23;;;15.20;;
27539;SDS011;15906;52.046;4.724;2023-08-12T04:18:02;27.33;;;16.00;;
27539;SDS011;15906;52.046;4.724;2023-08-12T04:20:28;22.98;;;15.63;;
27539;SDS011;15906;52.046;4.724;2023-08-12T04:22:53;26.70;;;15.35;;
27539;SDS011;15906;52.046;4.724;2023-08-12T04:25:19;20.30;;;13.77;;
27539;SDS011;15906;52.046;4.724;2023-08-12T04:27:44;23.77;;;14.63;;
27539;SDS011;15906;52.046;4.724;2023-08-12T04:30:12;26.58;;;14.48;;
27539;SDS011;15906;52.046;4.724;2023-08-12T04:32:38;23.90;;;14.85;;
27539;SDS011;15906;52.046;4.724;2023-08-12T04:35:04;23.08;;;15.60;;
27539;SDS011;15906;52.046;4.724;2023-08-12T04:37:31;28.73;;;16.75;;
27539;SDS011;15906;52.046;4.724;2023-08-12T04:39:57;22.10;;;15.50;;
27539;SDS011;15906;52.046;4.724;2023-08-12T04:42:23;24.75;;;15.35;;
27539;SDS011;15906;52.046;4.724;2023-08-12T04:44:49;24.65;;;15.48;;
27539;SDS011;15906;52.046;4.724;2023-08-12T04:47:15;23.90;;;15.25;;
27539;SDS011;15906;52.046;4.724;2023-08-12T04:49:41;25.42;;;16.55;;
27539;SDS011;15906;52.046;4.724;2023-08-12T04:52:06;28.33;;;16.55;;
27539;SDS011;15906;52.046;4.724;2023-08-12T04:54:32;24.42;;;15.80;;
27539;SDS011;15906;52.046;4.724;2023-08-12T04:56:58;24.45;;;15.45;;
27539;SDS011;15906;52.046;4.724;2023-08-12T04:59:24;24.65;;;16.05;;
27539;SDS011;15906;52.046;4.724;2023-08-12T05:01:50;26.13;;;16.67;;
27539;SDS011;15906;52.046;4.724;2023-08-12T05:04:16;23.70;;;16.00;;
27539;SDS011;15906;52.046;4.724;2023-08-12T05:06:41;23.02;;;15.68;;
27539;SDS011;15906;52.046;4.724;2023-08-12T05:09:07;22.65;;;16.02;;
27539;SDS011;15906;52.046;4.724;2023-08-12T05:11:33;28.73;;;16.67;;
27539;SDS011;15906;52.046;4.724;2023-08-12T05:13:59;28.30;;;15.23;;
27539;SDS011;15906;52.046;4.724;2023-08-12T05:16:24;23.95;;;14.52;;
27539;SDS011;15906;52.046;4.724;2023-08-12T05:18:50;22.90;;;14.70;;
27539;SDS011;15906;52.046;4.724;2023-08-12T05:21:16;25.67;;;15.68;;
27539;SDS011;15906;52.046;4.724;2023-08-12T05:23:42;20.80;;;14.57;;
27539;SDS011;15906;52.046;4.724;2023-08-12T05:26:08;22.88;;;14.82;;
27539;SDS011;15906;52.046;4.724;2023-08-12T05:28:33;21.50;;;14.70;;
27539;SDS011;15906;52.046;4.724;2023-08-12T05:30:59;26.08;;;13.98;;
27539;SDS011;15906;52.046;4.724;2023-08-12T05:33:24;23.58;;;13.80;;
27539;SDS011;15906;52.046;4.724;2023-08-12T05:35:50;25.15;;;16.00;;
27539;SDS011;15906;52.046;4.724;2023-08-12T05:38:16;24.15;;;13.95;;
27539;SDS011;15906;52.046;4.724;2023-08-12T05:40:42;20.95;;;13.70;;
27539;SDS011;15906;52.046;4.724;2023-08-12T05:43:07;21.83;;;13.30;;
27539;SDS011;15906;52.046;4.724;2023-08-12T05:45:33;20.00;;;12.85;;
27539;SDS011;15906;52.046;4.724;2023-08-12T05:47:59;24.25;;;12.80;;
27539;SDS011;15906;52.046;4.724;2023-08-12T05:50:24;20.58;;;12.48;;
27539;SDS011;15906;52.046;4.724;2023-08-12T05:52:50;19.52;;;12.30;;
27539;SDS011;15906;52.046;4.724;2023-08-12T05:55:15;20.58;;;11.00;;
27539;SDS011;15906;52.046;4.724;2023-08-12T05:57:41;19.00;;;11.57;;
27539;SDS011;15906;52.046;4.724;2023-08-12T06:00:07;22.02;;;11.98;;
27539;SDS011;15906;52.046;4.724;2023-08-12T06:02:33;17.25;;;9.52;;
27539;SDS011;15906;52.046;4.724;2023-08-12T06:04:58;17.75;;;9.93;;
27539;SDS011;15906;52.046;4.724;2023-08-12T06:07:24;17.10;;;10.43;;
27539;SDS011;15906;52.046;4.724;2023-08-12T06:09:49;14.75;;;8.90;;
27539;SDS011;15906;52.046;4.724;2023-08-12T06:12:15;11.10;;;6.25;;
27539;SDS011;15906;52.046;4.724;2023-08-12T06:14:41;8.38;;;5.53;;
27539;SDS011;15906;52.046;4.724;2023-08-12T06:17:06;9.32;;;5.22;;
27539;SDS011;15906;52.046;4.724;2023-08-12T06:19:32;10.15;;;5.50;;
27539;SDS011;15906;52.046;4.724;2023-08-12T06:21:58;4.72;;;3.70;;
27539;SDS011;15906;52.046;4.724;2023-08-12T06:24:24;6.72;;;4.28;;
27539;SDS011;15906;52.046;4.724;2023-08-12T06:26:49;8.15;;;3.88;;
27539;SDS011;15906;52.046;4.724;2023-08-12T06:29:15;5.68;;;4.05;;
27539;SDS011;15906;52.046;4.724;2023-08-12T06:31:41;6.00;;;3.85;;
27539;SDS011;15906;52.046;4.724;2023-08-12T06:34:06;4.38;;;3.13;;
27539;SDS011;15906;52.046;4.724;2023-08-12T06:36:32;3.80;;;3.35;;
27539;SDS011;15906;52.046;4.724;2023-08-12T06:38:58;7.32;;;2.90;;
27539;SDS011;15906;52.046;4.724;2023-08-12T06:41:23;3.28;;;2.30;;
27539;SDS011;15906;52.046;4.724;2023-08-12T06:43:49;3.80;;;2.70;;
27539;SDS011;15906;52.046;4.724;2023-08-12T06:46:14;3.97;;;2.63;;
27539;SDS011;15906;52.046;4.724;2023-08-12T06:48:40;3.63;;;2.80;;
27539;SDS011;15906;52.046;4.724;2023-08-12T06:51:06;3.70;;;2.55;;
27539;SDS011;15906;52.046;4.724;2023-08-12T06:53:40;7.57;;;2.90;;
27539;SDS011;15906;52.046;4.724;2023-08-12T06:56:07;3.70;;;2.38;;
27539;SDS011;15906;52.046;4.724;2023-08-12T06:58:32;4.60;;;3.17;;
27539;SDS011;15906;52.046;4.724;2023-08-12T07:00:58;6.28;;;2.42;;
27539;SDS011;15906;52.046;4.724;2023-08-12T07:03:26;4.57;;;2.30;;
27539;SDS011;15906;52.046;4.724;2023-08-12T07:05:55;3.78;;;2.60;;
27539;SDS011;15906;52.046;4.724;2023-08-12T07:08:20;3.22;;;2.78;;
27539;SDS011;15906;52.046;4.724;2023-08-12T07:10:46;3.40;;;2.20;;
27539;SDS011;15906;52.046;4.724;2023-08-12T07:13:12;2.55;;;2.30;;
27539;SDS011;15906;52.046;4.724;2023-08-12T07:15:37;3.65;;;2.55;;
27539;SDS011;15906;52.046;4.724;2023-08-12T07:18:03;3.15;;;2.45;;
27539;SDS011;15906;52.046;4.724;2023-08-12T07:20:29;4.32;;;2.53;;
27539;SDS011;15906;52.046;4.724;2023-08-12T07:22:54;4.72;;;2.65;;
27539;SDS011;15906;52.046;4.724;2023-08-12T07:25:20;5.03;;;3.00;;
27539;SDS011;15906;52.046;4.724;2023-08-12T07:27:46;3.95;;;2.47;;
27539;SDS011;15906;52.046;4.724;2023-08-12T07:30:12;5.13;;;2.20;;
27539;SDS011;15906;52.046;4.724;2023-08-12T07:32:37;6.25;;;2.30;;
27539;SDS011;15906;52.046;4.724;2023-08-12T07:35:04;3.55;;;2.40;;
27539;SDS011;15906;52.046;4.724;2023-08-12T07:37:33;2.42;;;1.85;;
27539;SDS011;15906;52.046;4.724;2023-08-12T07:39:59;4.93;;;1.80;;
27539;SDS011;15906;52.046;4.724;2023-08-12T07:42:24;4.55;;;2.05;;
27539;SDS011;15906;52.046;4.724;2023-08-12T07:44:50;6.03;;;2.60;;
27539;SDS011;15906;52.046;4.724;2023-08-12T07:47:15;6.53;;;2.35;;
27539;SDS011;15906;52.046;4.724;2023-08-12T07:49:42;3.70;;;1.70;;
27539;SDS011;15906;52.046;4.724;2023-08-12T07:52:08;3.53;;;2.10;;
27539;SDS011;15906;52.046;4.724;2023-08-12T07:54:33;4.53;;;1.92;;
27539;SDS011;15906;52.046;4.724;2023-08-12T07:56:59;4.68;;;2.05;;
27539;SDS011;15906;52.046;4.724;2023-08-12T07:59:24;7.97;;;2.22;;
27539;SDS011;15906;52.046;4.724;2023-08-12T08:01:51;5.25;;;2.00;;
27539;SDS011;15906;52.046;4.724;2023-08-12T08:04:16;7.00;;;2.00;;
27539;SDS011;15906;52.046;4.724;2023-08-12T08:06:42;10.98;;;2.88;;
27539;SDS011;15906;52.046;4.724;2023-08-12T08:09:08;4.68;;;1.75;;
27539;SDS011;15906;52.046;4.724;2023-08-12T08:11:34;8.15;;;1.77;;
27539;SDS011;15906;52.046;4.724;2023-08-12T08:14:00;8.90;;;2.20;;
27539;SDS011;15906;52.046;4.724;2023-08-12T08:16:25;5.75;;;1.95;;
27539;SDS011;15906;52.046;4.724;2023-08-12T08:18:51;3.75;;;2.00;;
27539;SDS011;15906;52.046;4.724;2023-08-12T08:21:17;5.88;;;2.08;;
27539;SDS011;15906;52.046;4.724;2023-08-12T08:23:42;5.53;;;2.85;;
27539;SDS011;15906;52.046;4.724;2023-08-12T08:26:08;5.55;;;2.40;;
27539;SDS011;15906;52.046;4.724;2023-08-12T08:28:34;5.70;;;1.88;;
27539;SDS011;15906;52.046;4.724;2023-08-12T08:31:00;7.03;;;2.38;;
27539;SDS011;15906;52.046;4.724;2023-08-12T08:33:25;5.43;;;2.38;;
27539;SDS011;15906;52.046;4.724;2023-08-12T08:35:51;4.65;;;1.77;;
27539;SDS011;15906;52.046;4.724;2023-08-12T08:38:18;9.80;;;2.25;;
27539;SDS011;15906;52.046;4.724;2023-08-12T08:40:44;5.30;;;2.40;;
27539;SDS011;15906;52.046;4.724;2023-08-12T08:43:09;6.93;;;2.10;;
27539;SDS011;15906;52.046;4.724;2023-08-12T08:45:37;9.02;;;2.30;;
27539;SDS011;15906;52.046;4.724;2023-08-12T08:48:03;6.35;;;1.77;;
27539;SDS011;15906;52.046;4.724;2023-08-12T08:50:31;5.63;;;2.58;;
27539;SDS011;15906;52.046;4.724;2023-08-12T08:52:57;5.80;;;2.55;;
27539;SDS011;15906;52.046;4.724;2023-08-12T08:55:24;6.70;;;2.17;;
27539;SDS011;15906;52.046;4.724;2023-08-12T08:57:50;7.50;;;2.25;;
27539;SDS011;15906;52.046;4.724;2023-08-12T09:00:17;3.90;;;1.85;;
27539;SDS011;15906;52.046;4.724;2023-08-12T09:02:44;10.15;;;2.17;;
27539;SDS011;15906;52.046;4.724;2023-08-12T09:05:15;10.52;;;2.10;;
27539;SDS011;15906;52.046;4.724;2023-08-12T09:07:42;12.32;;;2.38;;
27539;SDS011;15906;52.046;4.724;2023-08-12T09:10:09;4.93;;;2.08;;
27539;SDS011;15906;52.046;4.724;2023-08-12T09:12:36;4.60;;;1.75;;
27539;SDS011;15906;52.046;4.724;2023-08-12T09:15:02;8.02;;;2.70;;
27539;SDS011;15906;52.046;4.724;2023-08-12T09:17:29;7.07;;;1.52;;
27539;SDS011;15906;52.046;4.724;2023-08-12T09:19:55;5.70;;;1.80;;
27539;SDS011;15906;52.046;4.724;2023-08-12T09:22:24;6.68;;;1.70;;
27539;SDS011;15906;52.046;4.724;2023-08-12T09:24:55;5.90;;;1.60;;
27539;SDS011;15906;52.046;4.724;2023-08-12T09:27:22;6.35;;;1.50;;
27539;SDS011;15906;52.046;4.724;2023-08-12T09:29:48;9.48;;;2.47;;
27539;SDS011;15906;52.046;4.724;2023-08-12T09:32:20;6.03;;;1.60;;
27539;SDS011;15906;52.046;4.724;2023-08-12T09:34:49;7.40;;;1.60;;
27539;SDS011;15906;52.046;4.724;2023-08-12T09:37:16;6.28;;;1.80;;
27539;SDS011;15906;52.046;4.724;2023-08-12T09:39:43;2.47;;;1.42;;
27539;SDS011;15906;52.046;4.724;2023-08-12T09:42:10;5.57;;;1.48;;
27539;SDS011;15906;52.046;4.724;2023-08-12T09:44:36;5.78;;;1.42;;
27539;SDS011;15906;52.046;4.724;2023-08-12T09:47:02;5.40;;;1.60;;
27539;SDS011;15906;52.046;4.724;2023-08-12T09:49:28;4.95;;;1.60;;
27539;SDS011;15906;52.046;4.724;2023-08-12T09:51:55;5.75;;;2.28;;
27539;SDS011;15906;52.046;4.724;2023-08-12T09:54:21;4.40;;;2.03;;
27539;SDS011;15906;52.046;4.724;2023-08-12T09:56:47;4.88;;;1.70;;
27539;SDS011;15906;52.046;4.724;2023-08-12T09:59:20;5.25;;;1.77;;
27539;SDS011;15906;52.046;4.724;2023-08-12T10:01:48;7.70;;;1.65;;
27539;SDS011;15906;52.046;4.724;2023-08-12T10:04:17;4.97;;;1.60;;
27539;SDS011;15906;52.046;4.724;2023-08-12T10:06:43;7.45;;;1.80;;
27539;SDS011;15906;52.046;4.724;2023-08-12T10:09:10;5.85;;;1.73;;
27539;SDS011;15906;52.046;4.724;2023-08-12T10:11:36;7.15;;;2.17;;
27539;SDS011;15906;52.046;4.724;2023-08-12T10:14:03;3.55;;;1.45;;
27539;SDS011;15906;52.046;4.724;2023-08-12T10:16:29;7.50;;;1.42;;
27539;SDS011;15906;52.046;4.724;2023-08-12T10:18:58;7.78;;;1.50;;
27539;SDS011;15906;52.046;4.724;2023-08-12T10:21:25;5.30;;;1.45;;
27539;SDS011;15906;52.046;4.724;2023-08-12T10:23:51;4.85;;;1.40;;
27539;SDS011;15906;52.046;4.724;2023-08-12T10:26:18;7.03;;;1.60;;
27539;SDS011;15906;52.046;4.724;2023-08-12T10:28:44;6.05;;;1.70;;
27539;SDS011;15906;52.046;4.724;2023-08-12T10:31:13;7.78;;;1.67;;
27539;SDS011;15906;52.046;4.724;2023-08-12T10:33:39;8.75;;;2.22;;
27539;SDS011;15906;52.046;4.724;2023-08-12T10:36:05;5.22;;;1.85;;
27539;SDS011;15906;52.046;4.724;2023-08-12T10:38:32;7.55;;;1.58;;
27539;SDS011;15906;52.046;4.724;2023-08-12T10:41:14;6.75;;;1.65;;
27539;SDS011;15906;52.046;4.724;2023-08-12T10:46:22;7.07;;;1.20;;
27539;SDS011;15906;52.046;4.724;2023-08-12T10:49:01;3.75;;;0.95;;
27539;SDS011;15906;52.046;4.724;2023-08-12T10:51:41;6.93;;;1.95;;
27539;SDS011;15906;52.046;4.724;2023-08-12T11:07:19;6.28;;;1.77;;
27539;SDS011;15906;52.046;4.724;2023-08-12T11:12:47;7.57;;;2.28;;
27539;SDS011;15906;52.046;4.724;2023-08-12T11:15:14;12.38;;;3.08;;
27539;SDS011;15906;52.046;4.724;2023-08-12T11:17:40;9.13;;;2.25;;
27539;SDS011;15906;52.046;4.724;2023-08-12T11:20:07;8.23;;;2.10;;
27539;SDS011;15906;52.046;4.724;2023-08-12T11:22:35;7.28;;;2.00;;
27539;SDS011;15906;52.046;4.724;2023-08-12T11:25:06;7.50;;;1.90;;
27539;SDS011;15906;52.046;4.724;2023-08-12T11:27:40;8.40;;;1.80;;
27539;SDS011;15906;52.046;4.724;2023-08-12T11:30:10;10.98;;;2.28;;
27539;SDS011;15906;52.046;4.724;2023-08-12T11:32:40;8.45;;;1.90;;
27539;SDS011;15906;52.046;4.724;2023-08-12T11:35:06;9.48;;;1.92;;
27539;SDS011;15906;52.046;4.724;2023-08-12T11:37:34;7.57;;;2.17;;
27539;SDS011;15906;52.046;4.724;2023-08-12T11:40:01;8.57;;;2.55;;
27539;SDS011;15906;52.046;4.724;2023-08-12T11:42:28;12.13;;;2.78;;
27539;SDS011;15906;52.046;4.724;2023-08-12T11:44:54;8.90;;;2.17;;
27539;SDS011;15906;52.046;4.724;2023-08-12T11:47:19;7.40;;;1.98;;
27539;SDS011;15906;52.046;4.724;2023-08-12T11:49:45;7.38;;;1.77;;
27539;SDS011;15906;52.046;4.724;2023-08-12T11:52:10;8.02;;;1.83;;
27539;SDS011;15906;52.046;4.724;2023-08-12T11:54:36;11.38;;;2.53;;
27539;SDS011;15906;52.046;4.724;2023-08-12T11:57:03;7.28;;;1.92;;
27539;SDS011;15906;52.046;4.724;2023-08-12T11:59:30;8.40;;;2.45;;
27539;SDS011;15906;52.046;4.724;2023-08-12T12:01:55;8.18;;;2.05;;
27539;SDS011;15906;52.046;4.724;2023-08-12T12:04:21;8.82;;;2.45;;
27539;SDS011;15906;52.046;4.724;2023-08-12T12:06:47;7.38;;;1.65;;
27539;SDS011;15906;52.046;4.724;2023-08-12T12:09:13;8.60;;;1.95;;
27539;SDS011;15906;52.046;4.724;2023-08-12T12:11:39;8.43;;;2.83;;
27539;SDS011;15906;52.046;4.724;2023-08-12T12:14:07;8.70;;;1.95;;
27539;SDS011;15906;52.046;4.724;2023-08-12T12:21:39;7.05;;;2.22;;
27539;SDS011;15906;52.046;4.724;2023-08-12T12:24:08;12.20;;;2.72;;
27539;SDS011;15906;52.046;4.724;2023-08-12T12:26:34;10.10;;;2.17;;
27539;SDS011;15906;52.046;4.724;2023-08-12T12:29:00;5.90;;;1.83;;
27539;SDS011;15906;52.046;4.724;2023-08-12T12:31:28;7.78;;;2.38;;
27539;SDS011;15906;52.046;4.724;2023-08-12T12:33:53;7.22;;;2.10;;
27539;SDS011;15906;52.046;4.724;2023-08-12T12:36:19;8.35;;;2.00;;
27539;SDS011;15906;52.046;4.724;2023-08-12T12:38:45;7.55;;;2.05;;
27539;SDS011;15906;52.046;4.724;2023-08-12T12:41:10;8.30;;;2.00;;
27539;SDS011;15906;52.046;4.724;2023-08-12T12:43:36;10.27;;;2.10;;
27539;SDS011;15906;52.046;4.724;2023-08-12T12:46:01;8.32;;;2.20;;
27539;SDS011;15906;52.046;4.724;2023-08-12T12:48:27;9.57;;;1.90;;
27539;SDS011;15906;52.046;4.724;2023-08-12T12:50:52;6.95;;;1.95;;
27539;SDS011;15906;52.046;4.724;2023-08-12T12:53:18;6.60;;;1.83;;
27539;SDS011;15906;52.046;4.724;2023-08-12T12:55:43;8.80;;;2.00;;
27539;SDS011;15906;52.046;4.724;2023-08-12T12:58:09;7.00;;;2.30;;
27539;SDS011;15906;52.046;4.724;2023-08-12T13:00:35;10.60;;;1.90;;
27539;SDS011;15906;52.046;4.724;2023-08-12T13:03:00;6.40;;;2.22;;
27539;SDS011;15906;52.046;4.724;2023-08-12T13:05:26;10.35;;;2.00;;
27539;SDS011;15906;52.046;4.724;2023-08-12T13:07:51;10.75;;;2.08;;
27539;SDS011;15906;52.046;4.724;2023-08-12T13:10:17;7.10;;;1.92;;
27539;SDS011;15906;52.046;4.724;2023-08-12T13:12:42;7.32;;;1.88;;
27539;SDS011;15906;52.046;4.724;2023-08-12T13:15:08;9.32;;;2.33;;
27539;SDS011;15906;52.046;4.724;2023-08-12T13:17:34;15.30;;;3.08;;
27539;SDS011;15906;52.046;4.724;2023-08-12T13:20:00;6.68;;;2.08;;
27539;SDS011;15906;52.046;4.724;2023-08-12T13:22:25;7.82;;;2.17;;
27539;SDS011;15906;52.046;4.724;2023-08-12T13:24:51;9.07;;;2.30;;
27539;SDS011;15906;52.046;4.724;2023-08-12T13:27:16;6.78;;;1.98;;
27539;SDS011;15906;52.046;4.724;2023-08-12T13:29:42;9.75;;;3.03;;
27539;SDS011;15906;52.046;4.724;2023-08-12T13:32:08;10.95;;;2.35;;
27539;SDS011;15906;52.046;4.724;2023-08-12T13:34:33;7.00;;;2.03;;
27539;SDS011;15906;52.046;4.724;2023-08-12T13:36:59;8.15;;;2.08;;
27539;SDS011;15906;52.046;4.724;2023-08-12T13:39:24;9.52;;;2.40;;
27539;SDS011;15906;52.046;4.724;2023-08-12T13:41:50;10.93;;;2.50;;
27539;SDS011;15906;52.046;4.724;2023-08-12T13:44:16;9.45;;;2.22;;
27539;SDS011;15906;52.046;4.724;2023-08-12T13:46:41;11.13;;;2.40;;
27539;SDS011;15906;52.046;4.724;2023-08-12T13:49:07;9.02;;;2.25;;
27539;SDS011;15906;52.046;4.724;2023-08-12T13:51:32;12.98;;;2.78;;
27539;SDS011;15906;52.046;4.724;2023-08-12T13:53:58;8.77;;;2.72;;
27539;SDS011;15906;52.046;4.724;2023-08-12T13:56:23;6.95;;;2.40;;
27539;SDS011;15906;52.046;4.724;2023-08-12T13:58:49;13.13;;;3.13;;
27539;SDS011;15906;52.046;4.724;2023-08-12T14:01:14;10.65;;;2.20;;
27539;SDS011;15906;52.046;4.724;2023-08-12T14:03:40;10.35;;;2.42;;
27539;SDS011;15906;52.046;4.724;2023-08-12T14:06:06;8.82;;;2.25;;
27539;SDS011;15906;52.046;4.724;2023-08-12T14:08:31;9.23;;;2.47;;
27539;SDS011;15906;52.046;4.724;2023-08-12T14:10:57;10.27;;;2.80;;
27539;SDS011;15906;52.046;4.724;2023-08-12T14:13:22;9.48;;;2.42;;
27539;SDS011;15906;52.046;4.724;2023-08-12T14:15:48;10.40;;;2.92;;
27539;SDS011;15906;52.046;4.724;2023-08-12T14:18:13;14.75;;;2.30;;
27539;SDS011;15906;52.046;4.724;2023-08-12T14:20:39;8.43;;;2.25;;
27539;SDS011;15906;52.046;4.724;2023-08-12T14:23:05;8.50;;;2.25;;
27539;SDS011;15906;52.046;4.724;2023-08-12T14:25:31;11.13;;;2.55;;
27539;SDS011;15906;52.046;4.724;2023-08-12T14:27:56;13.07;;;3.20;;
27539;SDS011;15906;52.046;4.724;2023-08-12T14:30:25;9.05;;;2.30;;
27539;SDS011;15906;52.046;4.724;2023-08-12T14:32:51;7.80;;;2.55;;
27539;SDS011;15906;52.046;4.724;2023-08-12T14:35:17;8.30;;;2.67;;
27539;SDS011;15906;52.046;4.724;2023-08-12T14:37:43;6.75;;;2.17;;
27539;SDS011;15906;52.046;4.724;2023-08-12T14:40:09;12.10;;;2.30;;
27539;SDS011;15906;52.046;4.724;2023-08-12T14:42:34;10.32;;;2.58;;
27539;SDS011;15906;52.046;4.724;2023-08-12T14:45:00;8.55;;;3.08;;
27539;SDS011;15906;52.046;4.724;2023-08-12T14:47:26;10.48;;;2.67;;
27539;SDS011;15906;52.046;4.724;2023-08-12T14:49:52;9.93;;;2.65;;
27539;SDS011;15906;52.046;4.724;2023-08-12T14:52:18;9.60;;;2.20;;
27539;SDS011;15906;52.046;4.724;2023-08-12T14:54:45;6.97;;;2.50;;
27539;SDS011;15906;52.046;4.724;2023-08-12T14:57:11;7.22;;;2.67;;